Wilmore, Pennsylvania
Current Conditions -  °F | °C
As of 9:18 AM on Tuesday 21 Oct 2014 (Local Time) from KJST Reporting Station
Moderate Fog Moderate Fog  
Wind Chill: 43°   Ceiling: 200
Heat Index: 47°   Visibility: 0.25mi
Dew Point: 46°   Wind: 8mph
Humidity: 97%   Direction: 260°W
Pressure: 29.87"   Gusts: NA
Location:  40.39°N, 78.72°W
Report Text: KJST 211318Z AUTO 26007KT 1/4SM FG VV002 08/08 A2987 RMK AO2 T00830078
Loading
Personal Weather Stations






























Interactive Weather Map
Tropical Storm Tracking
New forecast layout! Learn more

10-Day Weather Forecast

Advertisements
Track Severe Weather on mobile